sensor_id;sensor_type;location;lat;lon;timestamp;P1;durP1;ratioP1;P2;durP2;ratioP2
3633;SDS011;1833;42.718;23.270;2023-05-31T00:00:19;29.60;;;27.07;;
3633;SDS011;1833;42.718;23.270;2023-05-31T00:02:46;28.33;;;26.13;;
3633;SDS011;1833;42.718;23.270;2023-05-31T00:05:13;28.50;;;26.37;;
3633;SDS011;1833;42.718;23.270;2023-05-31T00:07:40;30.93;;;28.33;;
3633;SDS011;1833;42.718;23.270;2023-05-31T00:10:08;29.73;;;27.20;;
3633;SDS011;1833;42.718;23.270;2023-05-31T00:12:37;30.97;;;27.97;;
3633;SDS011;1833;42.718;23.270;2023-05-31T00:15:04;30.20;;;27.80;;
3633;SDS011;1833;42.718;23.270;2023-05-31T00:17:32;28.37;;;26.27;;
3633;SDS011;1833;42.718;23.270;2023-05-31T00:19:59;28.77;;;26.47;;
3633;SDS011;1833;42.718;23.270;2023-05-31T00:22:27;27.77;;;25.73;;
3633;SDS011;1833;42.718;23.270;2023-05-31T00:24:54;30.40;;;27.80;;
3633;SDS011;1833;42.718;23.270;2023-05-31T00:27:21;28.80;;;26.50;;
3633;SDS011;1833;42.718;23.270;2023-05-31T00:29:50;29.60;;;27.20;;
3633;SDS011;1833;42.718;23.270;2023-05-31T00:32:17;28.90;;;26.40;;
3633;SDS011;1833;42.718;23.270;2023-05-31T00:34:44;28.23;;;26.13;;
3633;SDS011;1833;42.718;23.270;2023-05-31T00:37:11;28.67;;;26.30;;
3633;SDS011;1833;42.718;23.270;2023-05-31T00:39:39;27.80;;;25.30;;
3633;SDS011;1833;42.718;23.270;2023-05-31T00:42:06;27.60;;;25.37;;
3633;SDS011;1833;42.718;23.270;2023-05-31T00:44:34;27.23;;;25.13;;
3633;SDS011;1833;42.718;23.270;2023-05-31T00:47:03;28.20;;;25.90;;
3633;SDS011;1833;42.718;23.270;2023-05-31T00:49:31;26.33;;;24.33;;
3633;SDS011;1833;42.718;23.270;2023-05-31T00:51:58;27.80;;;25.23;;
3633;SDS011;1833;42.718;23.270;2023-05-31T00:54:27;28.73;;;26.40;;
3633;SDS011;1833;42.718;23.270;2023-05-31T00:56:54;27.30;;;25.00;;
3633;SDS011;1833;42.718;23.270;2023-05-31T00:59:22;28.00;;;25.60;;
3633;SDS011;1833;42.718;23.270;2023-05-31T01:01:49;28.77;;;26.17;;
3633;SDS011;1833;42.718;23.270;2023-05-31T01:04:18;28.63;;;26.47;;
3633;SDS011;1833;42.718;23.270;2023-05-31T01:06:46;26.23;;;24.20;;
3633;SDS011;1833;42.718;23.270;2023-05-31T01:09:15;27.20;;;25.10;;
3633;SDS011;1833;42.718;23.270;2023-05-31T01:11:54;27.60;;;25.40;;
3633;SDS011;1833;42.718;23.270;2023-05-31T01:14:27;27.60;;;25.30;;
3633;SDS011;1833;42.718;23.270;2023-05-31T01:16:58;27.70;;;25.30;;
3633;SDS011;1833;42.718;23.270;2023-05-31T01:19:33;28.33;;;26.07;;
3633;SDS011;1833;42.718;23.270;2023-05-31T01:22:07;27.87;;;25.30;;
3633;SDS011;1833;42.718;23.270;2023-05-31T01:24:41;27.20;;;25.00;;
3633;SDS011;1833;42.718;23.270;2023-05-31T01:27:12;27.00;;;24.63;;
3633;SDS011;1833;42.718;23.270;2023-05-31T01:29:42;27.23;;;25.00;;
3633;SDS011;1833;42.718;23.270;2023-05-31T01:32:10;26.90;;;24.80;;
3633;SDS011;1833;42.718;23.270;2023-05-31T01:34:39;26.90;;;24.90;;
3633;SDS011;1833;42.718;23.270;2023-05-31T01:37:06;26.47;;;24.57;;
3633;SDS011;1833;42.718;23.270;2023-05-31T01:39:33;26.97;;;24.50;;
3633;SDS011;1833;42.718;23.270;2023-05-31T01:42:01;27.17;;;24.40;;
3633;SDS011;1833;42.718;23.270;2023-05-31T01:44:30;27.00;;;24.97;;
3633;SDS011;1833;42.718;23.270;2023-05-31T01:46:58;27.40;;;25.40;;
3633;SDS011;1833;42.718;23.270;2023-05-31T01:49:25;26.87;;;24.73;;
3633;SDS011;1833;42.718;23.270;2023-05-31T01:51:53;26.03;;;23.70;;
3633;SDS011;1833;42.718;23.270;2023-05-31T01:54:20;27.83;;;25.00;;
3633;SDS011;1833;42.718;23.270;2023-05-31T01:56:47;24.90;;;23.00;;
3633;SDS011;1833;42.718;23.270;2023-05-31T01:59:14;25.80;;;23.40;;
3633;SDS011;1833;42.718;23.270;2023-05-31T02:01:44;25.90;;;23.70;;
3633;SDS011;1833;42.718;23.270;2023-05-31T02:04:11;26.30;;;24.40;;
3633;SDS011;1833;42.718;23.270;2023-05-31T02:06:38;28.47;;;26.13;;
3633;SDS011;1833;42.718;23.270;2023-05-31T02:09:06;26.80;;;24.50;;
3633;SDS011;1833;42.718;23.270;2023-05-31T02:11:33;26.77;;;24.50;;
3633;SDS011;1833;42.718;23.270;2023-05-31T02:14:01;26.73;;;24.50;;
3633;SDS011;1833;42.718;23.270;2023-05-31T02:16:28;26.40;;;24.20;;
3633;SDS011;1833;42.718;23.270;2023-05-31T02:18:56;27.40;;;25.00;;
3633;SDS011;1833;42.718;23.270;2023-05-31T02:21:24;28.07;;;25.47;;
3633;SDS011;1833;42.718;23.270;2023-05-31T02:23:51;26.00;;;24.00;;
3633;SDS011;1833;42.718;23.270;2023-05-31T02:26:18;26.80;;;24.70;;
3633;SDS011;1833;42.718;23.270;2023-05-31T02:28:47;26.70;;;24.50;;
3633;SDS011;1833;42.718;23.270;2023-05-31T02:31:14;27.23;;;25.00;;
3633;SDS011;1833;42.718;23.270;2023-05-31T02:33:41;25.43;;;23.13;;
3633;SDS011;1833;42.718;23.270;2023-05-31T02:36:10;37.33;;;24.80;;
3633;SDS011;1833;42.718;23.270;2023-05-31T02:38:37;28.03;;;25.20;;
3633;SDS011;1833;42.718;23.270;2023-05-31T02:41:04;25.57;;;23.37;;
3633;SDS011;1833;42.718;23.270;2023-05-31T02:43:32;28.97;;;25.17;;
3633;SDS011;1833;42.718;23.270;2023-05-31T02:45:59;26.87;;;24.57;;
3633;SDS011;1833;42.718;23.270;2023-05-31T02:48:27;27.17;;;24.87;;
3633;SDS011;1833;42.718;23.270;2023-05-31T02:50:55;26.57;;;24.27;;
3633;SDS011;1833;42.718;23.270;2023-05-31T02:53:23;26.10;;;23.60;;
3633;SDS011;1833;42.718;23.270;2023-05-31T02:55:51;25.43;;;23.40;;
3633;SDS011;1833;42.718;23.270;2023-05-31T02:58:19;27.57;;;24.90;;
3633;SDS011;1833;42.718;23.270;2023-05-31T03:00:46;26.83;;;24.33;;
3633;SDS011;1833;42.718;23.270;2023-05-31T03:03:13;25.97;;;23.83;;
3633;SDS011;1833;42.718;23.270;2023-05-31T03:05:43;26.50;;;24.00;;
3633;SDS011;1833;42.718;23.270;2023-05-31T03:08:11;26.47;;;24.27;;
3633;SDS011;1833;42.718;23.270;2023-05-31T03:10:40;26.00;;;23.87;;
3633;SDS011;1833;42.718;23.270;2023-05-31T03:13:07;26.60;;;24.50;;
3633;SDS011;1833;42.718;23.270;2023-05-31T03:15:35;25.90;;;23.60;;
3633;SDS011;1833;42.718;23.270;2023-05-31T03:18:03;26.37;;;24.07;;
3633;SDS011;1833;42.718;23.270;2023-05-31T03:20:31;26.73;;;24.33;;
3633;SDS011;1833;42.718;23.270;2023-05-31T03:22:58;25.37;;;23.43;;
3633;SDS011;1833;42.718;23.270;2023-05-31T03:25:26;30.53;;;24.50;;
3633;SDS011;1833;42.718;23.270;2023-05-31T03:27:54;25.00;;;23.20;;
3633;SDS011;1833;42.718;23.270;2023-05-31T03:30:22;25.80;;;23.73;;
3633;SDS011;1833;42.718;23.270;2023-05-31T03:32:51;28.30;;;25.57;;
3633;SDS011;1833;42.718;23.270;2023-05-31T03:35:18;29.10;;;24.80;;
3633;SDS011;1833;42.718;23.270;2023-05-31T03:37:45;27.33;;;24.70;;
3633;SDS011;1833;42.718;23.270;2023-05-31T03:40:13;28.17;;;25.57;;
3633;SDS011;1833;42.718;23.270;2023-05-31T03:42:40;26.20;;;24.20;;
3633;SDS011;1833;42.718;23.270;2023-05-31T03:45:09;27.43;;;24.83;;
3633;SDS011;1833;42.718;23.270;2023-05-31T03:47:36;28.03;;;25.37;;
3633;SDS011;1833;42.718;23.270;2023-05-31T03:50:06;25.53;;;23.43;;
3633;SDS011;1833;42.718;23.270;2023-05-31T03:52:33;26.87;;;24.60;;
3633;SDS011;1833;42.718;23.270;2023-05-31T03:55:02;27.57;;;24.90;;
3633;SDS011;1833;42.718;23.270;2023-05-31T03:57:30;26.70;;;23.97;;
3633;SDS011;1833;42.718;23.270;2023-05-31T03:59:58;27.47;;;25.00;;
3633;SDS011;1833;42.718;23.270;2023-05-31T04:02:27;26.03;;;23.70;;
3633;SDS011;1833;42.718;23.270;2023-05-31T04:04:54;26.90;;;24.00;;
3633;SDS011;1833;42.718;23.270;2023-05-31T04:07:21;25.87;;;23.67;;
3633;SDS011;1833;42.718;23.270;2023-05-31T04:09:49;26.27;;;24.27;;
3633;SDS011;1833;42.718;23.270;2023-05-31T04:12:16;27.20;;;23.70;;
3633;SDS011;1833;42.718;23.270;2023-05-31T04:14:43;25.23;;;23.13;;
3633;SDS011;1833;42.718;23.270;2023-05-31T04:17:10;26.23;;;23.60;;
3633;SDS011;1833;42.718;23.270;2023-05-31T04:19:39;25.87;;;23.70;;
3633;SDS011;1833;42.718;23.270;2023-05-31T04:22:06;26.60;;;23.93;;
3633;SDS011;1833;42.718;23.270;2023-05-31T04:24:33;26.93;;;24.70;;
3633;SDS011;1833;42.718;23.270;2023-05-31T04:27:01;24.00;;;22.20;;
3633;SDS011;1833;42.718;23.270;2023-05-31T04:29:28;26.20;;;23.87;;
3633;SDS011;1833;42.718;23.270;2023-05-31T04:31:56;26.67;;;24.27;;
3633;SDS011;1833;42.718;23.270;2023-05-31T04:34:23;26.27;;;23.57;;
3633;SDS011;1833;42.718;23.270;2023-05-31T04:36:53;30.00;;;23.70;;
3633;SDS011;1833;42.718;23.270;2023-05-31T04:39:20;25.87;;;23.27;;
3633;SDS011;1833;42.718;23.270;2023-05-31T04:41:48;26.63;;;24.23;;
3633;SDS011;1833;42.718;23.270;2023-05-31T04:44:16;25.07;;;22.97;;
3633;SDS011;1833;42.718;23.270;2023-05-31T04:46:45;24.57;;;22.67;;
3633;SDS011;1833;42.718;23.270;2023-05-31T04:49:13;28.23;;;25.47;;
3633;SDS011;1833;42.718;23.270;2023-05-31T04:51:40;25.67;;;23.30;;
3633;SDS011;1833;42.718;23.270;2023-05-31T04:54:09;31.03;;;23.13;;
3633;SDS011;1833;42.718;23.270;2023-05-31T04:56:36;26.20;;;23.50;;
3633;SDS011;1833;42.718;23.270;2023-05-31T04:59:03;25.93;;;23.43;;
3633;SDS011;1833;42.718;23.270;2023-05-31T05:01:32;29.57;;;23.50;;
3633;SDS011;1833;42.718;23.270;2023-05-31T05:04:00;27.20;;;24.30;;
3633;SDS011;1833;42.718;23.270;2023-05-31T05:06:27;27.93;;;24.50;;
3633;SDS011;1833;42.718;23.270;2023-05-31T05:08:54;27.20;;;24.47;;
3633;SDS011;1833;42.718;23.270;2023-05-31T05:11:23;27.80;;;25.17;;
3633;SDS011;1833;42.718;23.270;2023-05-31T05:13:51;26.47;;;23.73;;
3633;SDS011;1833;42.718;23.270;2023-05-31T05:16:18;25.70;;;23.07;;
3633;SDS011;1833;42.718;23.270;2023-05-31T05:18:45;27.50;;;23.43;;
3633;SDS011;1833;42.718;23.270;2023-05-31T05:21:13;32.40;;;27.80;;
3633;SDS011;1833;42.718;23.270;2023-05-31T05:23:40;86.90;;;61.37;;
3633;SDS011;1833;42.718;23.270;2023-05-31T05:26:07;36.07;;;31.87;;
3633;SDS011;1833;42.718;23.270;2023-05-31T05:28:36;34.07;;;30.40;;
3633;SDS011;1833;42.718;23.270;2023-05-31T05:31:03;38.83;;;34.03;;
3633;SDS011;1833;42.718;23.270;2023-05-31T05:33:31;47.77;;;32.93;;
3633;SDS011;1833;42.718;23.270;2023-05-31T05:35:58;53.03;;;40.90;;
3633;SDS011;1833;42.718;23.270;2023-05-31T05:38:27;46.77;;;32.17;;
3633;SDS011;1833;42.718;23.270;2023-05-31T05:40:54;38.87;;;33.70;;
3633;SDS011;1833;42.718;23.270;2023-05-31T05:43:22;36.87;;;32.30;;
3633;SDS011;1833;42.718;23.270;2023-05-31T05:45:50;34.07;;;27.50;;
3633;SDS011;1833;42.718;23.270;2023-05-31T05:48:17;31.97;;;28.90;;
3633;SDS011;1833;42.718;23.270;2023-05-31T05:50:45;31.73;;;28.23;;
3633;SDS011;1833;42.718;23.270;2023-05-31T05:53:12;32.20;;;28.93;;
3633;SDS011;1833;42.718;23.270;2023-05-31T05:55:41;30.80;;;26.17;;
3633;SDS011;1833;42.718;23.270;2023-05-31T05:58:14;28.37;;;25.50;;
3633;SDS011;1833;42.718;23.270;2023-05-31T06:00:42;32.57;;;29.10;;
3633;SDS011;1833;42.718;23.270;2023-05-31T06:03:11;35.93;;;27.60;;
3633;SDS011;1833;42.718;23.270;2023-05-31T06:05:38;34.70;;;31.07;;
3633;SDS011;1833;42.718;23.270;2023-05-31T06:08:05;128.80;;;85.97;;
3633;SDS011;1833;42.718;23.270;2023-05-31T06:10:33;35.30;;;28.27;;
3633;SDS011;1833;42.718;23.270;2023-05-31T06:13:00;118.00;;;83.13;;
3633;SDS011;1833;42.718;23.270;2023-05-31T06:15:28;30.20;;;26.97;;
3633;SDS011;1833;42.718;23.270;2023-05-31T06:17:55;61.67;;;44.17;;
3633;SDS011;1833;42.718;23.270;2023-05-31T06:20:24;35.87;;;29.33;;
3633;SDS011;1833;42.718;23.270;2023-05-31T06:22:52;31.83;;;28.70;;
3633;SDS011;1833;42.718;23.270;2023-05-31T06:25:20;36.80;;;32.37;;
3633;SDS011;1833;42.718;23.270;2023-05-31T06:27:47;40.23;;;32.13;;
3633;SDS011;1833;42.718;23.270;2023-05-31T06:30:15;32.23;;;28.67;;
3633;SDS011;1833;42.718;23.270;2023-05-31T06:32:42;29.97;;;26.57;;
3633;SDS011;1833;42.718;23.270;2023-05-31T06:35:09;32.47;;;26.47;;
3633;SDS011;1833;42.718;23.270;2023-05-31T06:37:38;35.30;;;27.93;;
3633;SDS011;1833;42.718;23.270;2023-05-31T06:40:06;30.70;;;27.90;;
3633;SDS011;1833;42.718;23.270;2023-05-31T06:42:34;32.03;;;28.70;;
3633;SDS011;1833;42.718;23.270;2023-05-31T06:45:01;32.47;;;27.67;;
3633;SDS011;1833;42.718;23.270;2023-05-31T06:47:29;34.40;;;27.77;;
3633;SDS011;1833;42.718;23.270;2023-05-31T06:49:56;38.97;;;29.83;;
3633;SDS011;1833;42.718;23.270;2023-05-31T06:52:23;186.10;;;55.70;;
3633;SDS011;1833;42.718;23.270;2023-05-31T06:54:52;233.60;;;73.27;;
3633;SDS011;1833;42.718;23.270;2023-05-31T06:57:19;121.03;;;43.30;;
3633;SDS011;1833;42.718;23.270;2023-05-31T06:59:46;155.20;;;52.27;;
3633;SDS011;1833;42.718;23.270;2023-05-31T07:02:14;476.67;;;126.33;;
3633;SDS011;1833;42.718;23.270;2023-05-31T07:04:41;406.63;;;99.00;;
3633;SDS011;1833;42.718;23.270;2023-05-31T07:07:08;47.27;;;31.63;;
3633;SDS011;1833;42.718;23.270;2023-05-31T07:09:35;51.00;;;31.77;;
3633;SDS011;1833;42.718;23.270;2023-05-31T07:12:04;42.60;;;29.67;;
3633;SDS011;1833;42.718;23.270;2023-05-31T07:14:32;34.23;;;28.03;;
3633;SDS011;1833;42.718;23.270;2023-05-31T07:16:59;34.50;;;27.73;;
3633;SDS011;1833;42.718;23.270;2023-05-31T07:19:28;29.93;;;26.80;;
3633;SDS011;1833;42.718;23.270;2023-05-31T07:21:55;31.67;;;28.00;;
3633;SDS011;1833;42.718;23.270;2023-05-31T07:24:22;29.53;;;26.50;;
3633;SDS011;1833;42.718;23.270;2023-05-31T07:26:50;30.10;;;27.30;;
3633;SDS011;1833;42.718;23.270;2023-05-31T07:29:19;29.67;;;26.67;;
3633;SDS011;1833;42.718;23.270;2023-05-31T07:31:46;29.07;;;26.07;;
3633;SDS011;1833;42.718;23.270;2023-05-31T07:34:14;29.63;;;26.50;;
3633;SDS011;1833;42.718;23.270;2023-05-31T07:36:41;28.63;;;26.13;;
3633;SDS011;1833;42.718;23.270;2023-05-31T07:39:09;30.00;;;27.00;;
3633;SDS011;1833;42.718;23.270;2023-05-31T07:41:36;33.57;;;26.97;;
3633;SDS011;1833;42.718;23.270;2023-05-31T07:44:05;30.00;;;27.10;;
3633;SDS011;1833;42.718;23.270;2023-05-31T07:46:34;30.50;;;27.50;;
3633;SDS011;1833;42.718;23.270;2023-05-31T07:49:01;31.93;;;28.00;;
3633;SDS011;1833;42.718;23.270;2023-05-31T07:51:31;35.50;;;28.83;;
3633;SDS011;1833;42.718;23.270;2023-05-31T07:53:58;30.50;;;27.80;;
3633;SDS011;1833;42.718;23.270;2023-05-31T07:56:25;30.10;;;27.23;;
3633;SDS011;1833;42.718;23.270;2023-05-31T07:58:53;30.63;;;27.43;;
3633;SDS011;1833;42.718;23.270;2023-05-31T08:01:20;30.63;;;27.57;;
3633;SDS011;1833;42.718;23.270;2023-05-31T08:03:49;32.47;;;28.97;;
3633;SDS011;1833;42.718;23.270;2023-05-31T08:06:17;29.83;;;27.03;;
3633;SDS011;1833;42.718;23.270;2023-05-31T08:08:44;31.50;;;28.30;;
3633;SDS011;1833;42.718;23.270;2023-05-31T08:11:11;31.10;;;27.87;;
3633;SDS011;1833;42.718;23.270;2023-05-31T08:13:39;30.60;;;27.57;;
3633;SDS011;1833;42.718;23.270;2023-05-31T08:16:06;31.30;;;28.20;;
3633;SDS011;1833;42.718;23.270;2023-05-31T08:18:33;30.10;;;27.10;;
3633;SDS011;1833;42.718;23.270;2023-05-31T08:21:02;34.43;;;31.00;;
3633;SDS011;1833;42.718;23.270;2023-05-31T08:23:39;30.93;;;27.77;;
3633;SDS011;1833;42.718;23.270;2023-05-31T08:26:09;36.80;;;28.00;;
3633;SDS011;1833;42.718;23.270;2023-05-31T08:28:36;31.07;;;28.07;;
3633;SDS011;1833;42.718;23.270;2023-05-31T08:31:04;31.00;;;28.10;;
3633;SDS011;1833;42.718;23.270;2023-05-31T08:33:32;32.57;;;28.60;;
3633;SDS011;1833;42.718;23.270;2023-05-31T08:35:59;31.33;;;28.27;;
3633;SDS011;1833;42.718;23.270;2023-05-31T08:38:30;31.97;;;28.60;;
3633;SDS011;1833;42.718;23.270;2023-05-31T08:41:00;33.10;;;30.00;;
3633;SDS011;1833;42.718;23.270;2023-05-31T08:43:28;32.50;;;29.33;;
3633;SDS011;1833;42.718;23.270;2023-05-31T08:45:58;35.63;;;30.10;;
3633;SDS011;1833;42.718;23.270;2023-05-31T08:48:26;33.03;;;29.67;;
3633;SDS011;1833;42.718;23.270;2023-05-31T08:50:55;35.37;;;31.20;;
3633;SDS011;1833;42.718;23.270;2023-05-31T08:53:24;36.00;;;32.27;;
3633;SDS011;1833;42.718;23.270;2023-05-31T08:55:53;37.60;;;33.40;;
3633;SDS011;1833;42.718;23.270;2023-05-31T08:58:20;33.73;;;30.43;;
3633;SDS011;1833;42.718;23.270;2023-05-31T09:00:48;32.47;;;29.27;;
3633;SDS011;1833;42.718;23.270;2023-05-31T09:03:15;33.37;;;29.97;;
3633;SDS011;1833;42.718;23.270;2023-05-31T09:05:42;33.97;;;29.77;;
3633;SDS011;1833;42.718;23.270;2023-05-31T09:08:10;33.80;;;30.40;;
3633;SDS011;1833;42.718;23.270;2023-05-31T09:10:39;32.27;;;29.30;;
3633;SDS011;1833;42.718;23.270;2023-05-31T09:13:07;34.43;;;30.90;;
3633;SDS011;1833;42.718;23.270;2023-05-31T09:15:35;34.07;;;30.50;;
3633;SDS011;1833;42.718;23.270;2023-05-31T09:18:12;31.90;;;28.80;;
3633;SDS011;1833;42.718;23.270;2023-05-31T09:20:40;33.07;;;29.57;;
3633;SDS011;1833;42.718;23.270;2023-05-31T09:23:07;31.77;;;28.77;;
3633;SDS011;1833;42.718;23.270;2023-05-31T09:25:44;32.03;;;29.00;;
3633;SDS011;1833;42.718;23.270;2023-05-31T09:28:13;32.53;;;29.47;;
3633;SDS011;1833;42.718;23.270;2023-05-31T09:30:41;31.92;;;28.92;;
3633;SDS011;1833;42.718;23.270;2023-05-31T09:33:08;32.17;;;28.97;;
3633;SDS011;1833;42.718;23.270;2023-05-31T09:35:36;33.17;;;29.63;;
3633;SDS011;1833;42.718;23.270;2023-05-31T09:38:04;31.58;;;28.38;;
3633;SDS011;1833;42.718;23.270;2023-05-31T09:40:31;32.27;;;28.77;;
3633;SDS011;1833;42.718;23.270;2023-05-31T09:42:59;31.30;;;28.40;;
3633;SDS011;1833;42.718;23.270;2023-05-31T09:45:28;30.43;;;27.67;;
3633;SDS011;1833;42.718;23.270;2023-05-31T09:47:56;32.07;;;28.83;;
3633;SDS011;1833;42.718;23.270;2023-05-31T09:50:23;32.33;;;28.63;;
3633;SDS011;1833;42.718;23.270;2023-05-31T09:52:55;29.83;;;27.10;;
3633;SDS011;1833;42.718;23.270;2023-05-31T09:55:22;31.77;;;28.67;;
3633;SDS011;1833;42.718;23.270;2023-05-31T09:57:51;31.13;;;27.97;;
3633;SDS011;1833;42.718;23.270;2023-05-31T10:00:20;31.30;;;28.30;;
3633;SDS011;1833;42.718;23.270;2023-05-31T10:02:50;31.50;;;28.50;;
3633;SDS011;1833;42.718;23.270;2023-05-31T10:05:18;31.07;;;27.53;;
3633;SDS011;1833;42.718;23.270;2023-05-31T10:07:46;31.40;;;28.30;;
3633;SDS011;1833;42.718;23.270;2023-05-31T10:10:13;34.20;;;28.60;;
3633;SDS011;1833;42.718;23.270;2023-05-31T10:12:45;29.57;;;26.73;;
3633;SDS011;1833;42.718;23.270;2023-05-31T10:15:16;29.83;;;27.13;;
3633;SDS011;1833;42.718;23.270;2023-05-31T10:17:45;30.27;;;27.47;;
3633;SDS011;1833;42.718;23.270;2023-05-31T10:20:17;30.73;;;27.70;;
3633;SDS011;1833;42.718;23.270;2023-05-31T10:22:46;29.30;;;26.50;;
3633;SDS011;1833;42.718;23.270;2023-05-31T10:25:17;31.00;;;28.20;;
3633;SDS011;1833;42.718;23.270;2023-05-31T10:27:47;31.57;;;27.40;;
3633;SDS011;1833;42.718;23.270;2023-05-31T10:30:17;31.95;;;28.80;;
3633;SDS011;1833;42.718;23.270;2023-05-31T10:32:52;31.13;;;28.13;;
3633;SDS011;1833;42.718;23.270;2023-05-31T10:35:21;31.83;;;28.83;;
3633;SDS011;1833;42.718;23.270;2023-05-31T10:37:49;31.03;;;28.13;;
3633;SDS011;1833;42.718;23.270;2023-05-31T10:40:19;31.67;;;28.43;;
3633;SDS011;1833;42.718;23.270;2023-05-31T10:42:50;33.80;;;28.00;;
3633;SDS011;1833;42.718;23.270;2023-05-31T10:45:22;31.87;;;28.97;;
3633;SDS011;1833;42.718;23.270;2023-05-31T10:47:51;31.93;;;29.13;;
3633;SDS011;1833;42.718;23.270;2023-05-31T10:50:19;31.23;;;28.27;;
3633;SDS011;1833;42.718;23.270;2023-05-31T10:52:49;31.87;;;28.63;;
3633;SDS011;1833;42.718;23.270;2023-05-31T10:55:17;32.13;;;28.93;;
3633;SDS011;1833;42.718;23.270;2023-05-31T10:57:49;31.47;;;28.47;;
3633;SDS011;1833;42.718;23.270;2023-05-31T11:00:18;30.40;;;27.70;;
3633;SDS011;1833;42.718;23.270;2023-05-31T11:02:46;30.93;;;27.93;;
3633;SDS011;1833;42.718;23.270;2023-05-31T11:05:17;30.63;;;27.83;;
3633;SDS011;1833;42.718;23.270;2023-05-31T11:07:45;30.83;;;27.83;;
3633;SDS011;1833;42.718;23.270;2023-05-31T11:10:25;30.20;;;27.17;;
3633;SDS011;1833;42.718;23.270;2023-05-31T11:12:55;30.40;;;27.50;;
3633;SDS011;1833;42.718;23.270;2023-05-31T11:15:22;30.17;;;27.27;;
3633;SDS011;1833;42.718;23.270;2023-05-31T11:17:50;30.83;;;27.73;;
3633;SDS011;1833;42.718;23.270;2023-05-31T11:20:18;31.23;;;27.90;;
3633;SDS011;1833;42.718;23.270;2023-05-31T11:22:45;29.57;;;26.70;;
3633;SDS011;1833;42.718;23.270;2023-05-31T11:25:19;30.83;;;27.63;;
3633;SDS011;1833;42.718;23.270;2023-05-31T11:27:48;30.30;;;27.60;;
3633;SDS011;1833;42.718;23.270;2023-05-31T11:30:34;31.50;;;28.80;;
3633;SDS011;1833;42.718;23.270;2023-05-31T11:33:02;32.00;;;28.73;;
3633;SDS011;1833;42.718;23.270;2023-05-31T11:35:32;31.90;;;29.03;;
3633;SDS011;1833;42.718;23.270;2023-05-31T11:38:01;31.20;;;28.20;;
3633;SDS011;1833;42.718;23.270;2023-05-31T11:40:28;31.57;;;28.67;;
3633;SDS011;1833;42.718;23.270;2023-05-31T11:43:03;31.13;;;28.33;;
3633;SDS011;1833;42.718;23.270;2023-05-31T11:45:31;31.57;;;28.60;;
3633;SDS011;1833;42.718;23.270;2023-05-31T11:48:06;32.77;;;29.47;;
3633;SDS011;1833;42.718;23.270;2023-05-31T11:50:34;30.60;;;27.83;;
3633;SDS011;1833;42.718;23.270;2023-05-31T11:53:02;31.27;;;27.97;;
3633;SDS011;1833;42.718;23.270;2023-05-31T11:55:29;30.40;;;27.60;;
3633;SDS011;1833;42.718;23.270;2023-05-31T11:57:58;30.83;;;28.13;;
3633;SDS011;1833;42.718;23.270;2023-05-31T12:00:29;29.77;;;26.90;;
3633;SDS011;1833;42.718;23.270;2023-05-31T12:02:57;30.00;;;26.80;;
3633;SDS011;1833;42.718;23.270;2023-05-31T12:05:27;29.00;;;26.20;;
3633;SDS011;1833;42.718;23.270;2023-05-31T12:07:55;29.50;;;26.80;;
3633;SDS011;1833;42.718;23.270;2023-05-31T12:10:24;28.73;;;25.63;;
3633;SDS011;1833;42.718;23.270;2023-05-31T12:12:52;29.70;;;26.80;;
3633;SDS011;1833;42.718;23.270;2023-05-31T12:15:19;29.50;;;26.70;;
3633;SDS011;1833;42.718;23.270;2023-05-31T12:17:48;29.07;;;26.47;;
3633;SDS011;1833;42.718;23.270;2023-05-31T12:20:15;30.23;;;27.10;;
3633;SDS011;1833;42.718;23.270;2023-05-31T12:22:42;28.23;;;25.70;;
3633;SDS011;1833;42.718;23.270;2023-05-31T12:25:10;29.93;;;27.03;;
3633;SDS011;1833;42.718;23.270;2023-05-31T12:27:38;26.37;;;24.17;;
3633;SDS011;1833;42.718;23.270;2023-05-31T12:30:05;25.73;;;23.50;;
3633;SDS011;1833;42.718;23.270;2023-05-31T12:32:33;25.87;;;23.60;;
3633;SDS011;1833;42.718;23.270;2023-05-31T12:35:05;26.63;;;24.30;;
3633;SDS011;1833;42.718;23.270;2023-05-31T12:37:33;26.67;;;24.10;;
3633;SDS011;1833;42.718;23.270;2023-05-31T12:40:08;46.73;;;42.20;;
3633;SDS011;1833;42.718;23.270;2023-05-31T12:42:35;49.20;;;42.83;;
3633;SDS011;1833;42.718;23.270;2023-05-31T12:45:03;55.93;;;50.40;;
3633;SDS011;1833;42.718;23.270;2023-05-31T12:47:32;58.90;;;53.17;;
3633;SDS011;1833;42.718;23.270;2023-05-31T12:50:00;63.70;;;57.90;;
3633;SDS011;1833;42.718;23.270;2023-05-31T12:52:32;59.20;;;54.00;;
3633;SDS011;1833;42.718;23.270;2023-05-31T12:55:00;55.13;;;49.70;;
3633;SDS011;1833;42.718;23.270;2023-05-31T12:57:29;58.40;;;53.47;;
3633;SDS011;1833;42.718;23.270;2023-05-31T12:59:58;59.80;;;54.40;;
3633;SDS011;1833;42.718;23.270;2023-05-31T13:02:26;59.87;;;54.77;;
3633;SDS011;1833;42.718;23.270;2023-05-31T13:04:53;59.43;;;53.90;;
3633;SDS011;1833;42.718;23.270;2023-05-31T13:07:21;63.77;;;58.27;;
3633;SDS011;1833;42.718;23.270;2023-05-31T13:09:50;58.20;;;53.40;;
3633;SDS011;1833;42.718;23.270;2023-05-31T13:12:17;52.20;;;47.63;;
3633;SDS011;1833;42.718;23.270;2023-05-31T13:14:46;46.50;;;42.40;;
3633;SDS011;1833;42.718;23.270;2023-05-31T13:17:14;41.20;;;37.37;;
3633;SDS011;1833;42.718;23.270;2023-05-31T13:19:42;39.93;;;36.33;;
3633;SDS011;1833;42.718;23.270;2023-05-31T13:22:11;33.00;;;30.10;;
3633;SDS011;1833;42.718;23.270;2023-05-31T13:24:38;32.10;;;29.00;;
3633;SDS011;1833;42.718;23.270;2023-05-31T13:27:07;30.03;;;27.33;;
3633;SDS011;1833;42.718;23.270;2023-05-31T13:29:35;29.37;;;26.60;;
3633;SDS011;1833;42.718;23.270;2023-05-31T13:32:02;30.00;;;27.13;;
3633;SDS011;1833;42.718;23.270;2023-05-31T13:34:29;32.93;;;30.03;;
3633;SDS011;1833;42.718;23.270;2023-05-31T13:36:57;31.07;;;28.17;;
3633;SDS011;1833;42.718;23.270;2023-05-31T13:39:24;30.83;;;27.57;;
3633;SDS011;1833;42.718;23.270;2023-05-31T13:41:51;29.73;;;26.93;;
3633;SDS011;1833;42.718;23.270;2023-05-31T13:44:20;31.43;;;28.33;;
3633;SDS011;1833;42.718;23.270;2023-05-31T13:46:47;32.43;;;28.30;;
3633;SDS011;1833;42.718;23.270;2023-05-31T13:49:15;29.40;;;26.47;;
3633;SDS011;1833;42.718;23.270;2023-05-31T13:51:43;32.97;;;29.13;;
3633;SDS011;1833;42.718;23.270;2023-05-31T13:54:10;32.67;;;27.90;;
3633;SDS011;1833;42.718;23.270;2023-05-31T13:56:38;27.53;;;24.73;;
3633;SDS011;1833;42.718;23.270;2023-05-31T13:59:05;27.67;;;25.17;;
3633;SDS011;1833;42.718;23.270;2023-05-31T14:01:34;27.83;;;25.30;;
3633;SDS011;1833;42.718;23.270;2023-05-31T14:04:01;26.90;;;24.30;;
3633;SDS011;1833;42.718;23.270;2023-05-31T14:06:28;29.17;;;26.47;;
3633;SDS011;1833;42.718;23.270;2023-05-31T14:08:56;27.90;;;25.40;;
3633;SDS011;1833;42.718;23.270;2023-05-31T14:11:24;27.17;;;24.87;;
3633;SDS011;1833;42.718;23.270;2023-05-31T14:13:52;28.67;;;24.77;;
3633;SDS011;1833;42.718;23.270;2023-05-31T14:16:19;25.67;;;23.40;;
3633;SDS011;1833;42.718;23.270;2023-05-31T14:18:48;25.93;;;23.83;;
3633;SDS011;1833;42.718;23.270;2023-05-31T14:21:15;26.53;;;23.90;;
3633;SDS011;1833;42.718;23.270;2023-05-31T14:23:43;27.43;;;24.67;;
3633;SDS011;1833;42.718;23.270;2023-05-31T14:26:10;26.43;;;24.13;;
3633;SDS011;1833;42.718;23.270;2023-05-31T14:28:37;26.93;;;24.40;;
3633;SDS011;1833;42.718;23.270;2023-05-31T14:31:05;29.60;;;23.13;;
3633;SDS011;1833;42.718;23.270;2023-05-31T14:33:32;25.40;;;23.03;;
3633;SDS011;1833;42.718;23.270;2023-05-31T14:36:01;26.13;;;23.63;;
3633;SDS011;1833;42.718;23.270;2023-05-31T14:38:28;27.10;;;24.30;;